sensor_id;sensor_type;location;lat;lon;timestamp;pressure;altitude;pressure_sealevel;temperature;humidity
72465;BME280;60471;52.150;4.508;2023-03-15T00:02:07;100916.34;;;6.04;71.16
72465;BME280;60471;52.150;4.508;2023-03-15T00:04:33;100919.47;;;5.85;70.22
72465;BME280;60471;52.150;4.508;2023-03-15T00:06:59;100926.53;;;5.82;70.08
72465;BME280;60471;52.150;4.508;2023-03-15T00:09:26;100926.13;;;5.65;70.70
72465;BME280;60471;52.150;4.508;2023-03-15T00:11:52;100924.31;;;5.67;70.37
72465;BME280;60471;52.150;4.508;2023-03-15T00:14:21;100931.38;;;5.64;70.24
72465;BME280;60471;52.150;4.508;2023-03-15T00:16:48;100930.56;;;5.62;70.46
72465;BME280;60471;52.150;4.508;2023-03-15T00:19:14;100932.31;;;5.61;71.57
72465;BME280;60471;52.150;4.508;2023-03-15T00:21:40;100939.75;;;5.44;72.66
72465;BME280;60471;52.150;4.508;2023-03-15T00:24:10;100946.88;;;5.37;72.89
72465;BME280;60471;52.150;4.508;2023-03-15T00:26:37;100938.38;;;5.29;73.26
72465;BME280;60471;52.150;4.508;2023-03-15T00:29:03;100942.69;;;5.30;72.96
72465;BME280;60471;52.150;4.508;2023-03-15T00:31:30;100951.66;;;5.21;72.96
72465;BME280;60471;52.150;4.508;2023-03-15T00:33:56;100952.75;;;5.11;73.15
72465;BME280;60471;52.150;4.508;2023-03-15T00:36:22;100948.69;;;5.00;73.66
72465;BME280;60471;52.150;4.508;2023-03-15T00:38:49;100948.34;;;5.13;74.22
72465;BME280;60471;52.150;4.508;2023-03-15T00:41:18;100952.94;;;5.04;74.22
72465;BME280;60471;52.150;4.508;2023-03-15T00:43:45;100952.91;;;5.05;73.76
72465;BME280;60471;52.150;4.508;2023-03-15T00:46:12;100952.91;;;5.05;73.94
72465;BME280;60471;52.150;4.508;2023-03-15T00:48:38;100945.06;;;5.05;74.49
72465;BME280;60471;52.150;4.508;2023-03-15T00:53:39;100949.47;;;5.03;74.68
72465;BME280;60471;52.150;4.508;2023-03-15T00:56:11;100944.31;;;4.99;74.87
72465;BME280;60471;52.150;4.508;2023-03-15T00:58:39;100948.03;;;4.90;74.95
72465;BME280;60471;52.150;4.508;2023-03-15T01:01:06;100953.19;;;4.93;75.42
72465;BME280;60471;52.150;4.508;2023-03-15T01:03:41;100951.47;;;4.92;75.64
72465;BME280;60471;52.150;4.508;2023-03-15T01:06:09;100957.16;;;4.71;75.84
72465;BME280;60471;52.150;4.508;2023-03-15T01:08:37;100974.19;;;4.90;75.89
72465;BME280;60471;52.150;4.508;2023-03-15T01:11:05;100976.63;;;4.96;75.78
72465;BME280;60471;52.150;4.508;2023-03-15T01:13:33;100975.56;;;5.05;75.43
72465;BME280;60471;52.150;4.508;2023-03-15T01:16:00;100981.66;;;5.05;75.45
72465;BME280;60471;52.150;4.508;2023-03-15T01:18:26;100992.13;;;5.05;75.43
72465;BME280;60471;52.150;4.508;2023-03-15T01:20:52;100986.88;;;5.05;75.09
72465;BME280;60471;52.150;4.508;2023-03-15T01:23:19;101000.91;;;5.03;75.26
72465;BME280;60471;52.150;4.508;2023-03-15T01:25:45;100994.50;;;5.16;75.09
72465;BME280;60471;52.150;4.508;2023-03-15T01:28:11;100997.88;;;5.19;74.62
72465;BME280;60471;52.150;4.508;2023-03-15T01:30:37;101002.25;;;5.19;74.50
72465;BME280;60471;52.150;4.508;2023-03-15T01:33:03;101008.38;;;5.18;74.93
72465;BME280;60471;52.150;4.508;2023-03-15T01:35:30;101016.19;;;5.19;74.96
72465;BME280;60471;52.150;4.508;2023-03-15T01:37:56;101020.59;;;5.17;74.97
72465;BME280;60471;52.150;4.508;2023-03-15T01:40:22;101033.75;;;5.14;74.86
72465;BME280;60471;52.150;4.508;2023-03-15T01:48:17;101031.03;;;5.19;74.76
72465;BME280;60471;52.150;4.508;2023-03-15T01:50:45;101035.31;;;5.23;74.79
72465;BME280;60471;52.150;4.508;2023-03-15T01:53:11;101032.63;;;5.26;74.46
72465;BME280;60471;52.150;4.508;2023-03-15T01:55:37;101044.97;;;5.19;74.30
72465;BME280;60471;52.150;4.508;2023-03-15T01:58:05;101040.59;;;5.21;74.12
72465;BME280;60471;52.150;4.508;2023-03-15T02:00:33;101045.09;;;5.15;73.73
72465;BME280;60471;52.150;4.508;2023-03-15T02:03:02;101050.09;;;5.26;73.62
72465;BME280;60471;52.150;4.508;2023-03-15T02:05:34;101044.94;;;5.22;73.26
72465;BME280;60471;52.150;4.508;2023-03-15T02:08:10;101048.31;;;5.26;73.12
72465;BME280;60471;52.150;4.508;2023-03-15T02:10:44;101055.44;;;5.21;73.07
72465;BME280;60471;52.150;4.508;2023-03-15T02:13:16;101059.81;;;5.19;73.25
72465;BME280;60471;52.150;4.508;2023-03-15T02:15:43;101058.91;;;5.20;73.47
72465;BME280;60471;52.150;4.508;2023-03-15T02:18:11;101066.78;;;5.18;73.65
72465;BME280;60471;52.150;4.508;2023-03-15T02:23:11;101068.50;;;5.21;72.89
72465;BME280;60471;52.150;4.508;2023-03-15T02:28:28;101064.84;;;5.28;72.75
72465;BME280;60471;52.150;4.508;2023-03-15T02:30:55;101066.69;;;5.24;72.87
72465;BME280;60471;52.150;4.508;2023-03-15T02:33:26;101065.03;;;5.19;72.63
72465;BME280;60471;52.150;4.508;2023-03-15T02:36:15;101068.59;;;5.16;72.99
72465;BME280;60471;52.150;4.508;2023-03-15T02:38:45;101069.44;;;5.17;73.13
72465;BME280;60471;52.150;4.508;2023-03-15T02:41:12;101076.50;;;5.13;73.14
72465;BME280;60471;52.150;4.508;2023-03-15T02:43:42;101078.31;;;5.10;73.46
72465;BME280;60471;52.150;4.508;2023-03-15T02:46:09;101076.38;;;5.19;72.86
72465;BME280;60471;52.150;4.508;2023-03-15T02:48:35;101074.75;;;5.14;73.54
72465;BME280;60471;52.150;4.508;2023-03-15T02:51:03;101087.72;;;5.18;72.87
72465;BME280;60471;52.150;4.508;2023-03-15T02:53:30;101091.66;;;5.38;72.57
72465;BME280;60471;52.150;4.508;2023-03-15T02:55:56;101098.44;;;5.46;71.70
72465;BME280;60471;52.150;4.508;2023-03-15T02:58:23;101099.34;;;5.45;71.65
72465;BME280;60471;52.150;4.508;2023-03-15T03:00:50;101105.44;;;5.46;72.21
72465;BME280;60471;52.150;4.508;2023-03-15T03:03:17;101107.44;;;5.35;71.33
72465;BME280;60471;52.150;4.508;2023-03-15T03:05:44;101106.91;;;5.58;71.24
72465;BME280;60471;52.150;4.508;2023-03-15T03:08:10;101119.72;;;5.70;70.68
72465;BME280;60471;52.150;4.508;2023-03-15T03:10:36;101127.28;;;5.82;69.70
72465;BME280;60471;52.150;4.508;2023-03-15T03:13:02;101131.06;;;5.70;69.77
72465;BME280;60471;52.150;4.508;2023-03-15T03:15:28;101146.81;;;5.69;69.58
72465;BME280;60471;52.150;4.508;2023-03-15T03:17:54;101152.53;;;5.86;69.78
72465;BME280;60471;52.150;4.508;2023-03-15T03:20:20;101153.47;;;5.82;69.38
72465;BME280;60471;52.150;4.508;2023-03-15T03:22:46;101160.88;;;5.63;70.25
72465;BME280;60471;52.150;4.508;2023-03-15T03:25:12;101156.72;;;5.53;70.58
72465;BME280;60471;52.150;4.508;2023-03-15T03:27:38;101161.00;;;5.59;70.83
72465;BME280;60471;52.150;4.508;2023-03-15T03:30:06;101160.25;;;5.52;70.71
72465;BME280;60471;52.150;4.508;2023-03-15T03:32:36;101167.44;;;5.44;70.12
72465;BME280;60471;52.150;4.508;2023-03-15T03:35:02;101166.09;;;5.24;70.96
72465;BME280;60471;52.150;4.508;2023-03-15T03:37:28;101166.41;;;5.08;71.45
72465;BME280;60471;52.150;4.508;2023-03-15T03:39:56;101167.63;;;4.91;72.46
72465;BME280;60471;52.150;4.508;2023-03-15T03:42:22;101182.69;;;4.79;72.34
72465;BME280;60471;52.150;4.508;2023-03-15T03:44:48;101181.81;;;4.78;72.47
72465;BME280;60471;52.150;4.508;2023-03-15T03:47:15;101188.16;;;4.63;72.71
72465;BME280;60471;52.150;4.508;2023-03-15T03:49:41;101186.53;;;4.58;73.40
72465;BME280;60471;52.150;4.508;2023-03-15T03:52:07;101201.59;;;4.45;73.50
72465;BME280;60471;52.150;4.508;2023-03-15T03:54:33;101203.38;;;4.40;73.53
72465;BME280;60471;52.150;4.508;2023-03-15T03:56:59;101210.28;;;4.44;73.70
72465;BME280;60471;52.150;4.508;2023-03-15T03:59:25;101205.91;;;4.46;73.67
72465;BME280;60471;52.150;4.508;2023-03-15T04:01:51;101208.38;;;4.54;73.11
72465;BME280;60471;52.150;4.508;2023-03-15T04:04:17;101213.28;;;4.72;72.42
72465;BME280;60471;52.150;4.508;2023-03-15T04:06:43;101221.00;;;4.80;72.15
72465;BME280;60471;52.150;4.508;2023-03-15T04:09:13;101220.09;;;4.82;71.98
72465;BME280;60471;52.150;4.508;2023-03-15T04:11:41;101225.97;;;4.93;71.66
72465;BME280;60471;52.150;4.508;2023-03-15T04:14:11;101236.94;;;5.14;71.44
72465;BME280;60471;52.150;4.508;2023-03-15T04:16:38;101235.97;;;5.18;70.94
72465;BME280;60471;52.150;4.508;2023-03-15T04:19:08;101236.91;;;5.15;71.64
72465;BME280;60471;52.150;4.508;2023-03-15T04:21:37;101235.22;;;5.13;71.15
72465;BME280;60471;52.150;4.508;2023-03-15T04:24:03;101248.31;;;5.10;71.08
72465;BME280;60471;52.150;4.508;2023-03-15T04:26:29;101246.94;;;4.92;71.13
72465;BME280;60471;52.150;4.508;2023-03-15T04:28:56;101254.00;;;4.85;70.58
72465;BME280;60471;52.150;4.508;2023-03-15T04:31:23;101258.09;;;4.51;70.94
72465;BME280;60471;52.150;4.508;2023-03-15T04:33:52;101257.31;;;4.44;71.85
72465;BME280;60471;52.150;4.508;2023-03-15T04:36:19;101258.28;;;4.39;72.51
72465;BME280;60471;52.150;4.508;2023-03-15T04:38:47;101258.41;;;4.29;73.23
72465;BME280;60471;52.150;4.508;2023-03-15T04:41:14;101264.44;;;4.33;73.57
72465;BME280;60471;52.150;4.508;2023-03-15T04:43:41;101273.22;;;4.30;73.64
72465;BME280;60471;52.150;4.508;2023-03-15T04:46:08;101271.44;;;4.32;74.03
72465;BME280;60471;52.150;4.508;2023-03-15T04:48:34;101271.41;;;4.34;74.69
72465;BME280;60471;52.150;4.508;2023-03-15T04:51:00;101268.88;;;4.29;74.71
72465;BME280;60471;52.150;4.508;2023-03-15T04:53:27;101269.75;;;4.28;74.78
72465;BME280;60471;52.150;4.508;2023-03-15T04:55:53;101271.66;;;4.17;74.79
72465;BME280;60471;52.150;4.508;2023-03-15T04:58:19;101270.00;;;4.13;75.69
72465;BME280;60471;52.150;4.508;2023-03-15T05:00:45;101277.94;;;4.05;75.72
72465;BME280;60471;52.150;4.508;2023-03-15T05:03:11;101271.81;;;4.06;75.88
72465;BME280;60471;52.150;4.508;2023-03-15T05:05:37;101280.44;;;4.13;75.52
72465;BME280;60471;52.150;4.508;2023-03-15T05:08:03;101288.13;;;4.22;75.01
72465;BME280;60471;52.150;4.508;2023-03-15T05:10:29;101288.81;;;4.35;74.58
72465;BME280;60471;52.150;4.508;2023-03-15T05:12:56;101299.06;;;4.49;73.72
72465;BME280;60471;52.150;4.508;2023-03-15T05:15:21;101310.28;;;4.54;73.38
72465;BME280;60471;52.150;4.508;2023-03-15T05:17:48;101304.19;;;4.53;73.63
72465;BME280;60471;52.150;4.508;2023-03-15T05:20:14;101312.53;;;4.77;72.98
72465;BME280;60471;52.150;4.508;2023-03-15T05:22:41;101310.59;;;4.88;70.91
72465;BME280;60471;52.150;4.508;2023-03-15T05:25:08;101304.59;;;4.83;71.04
72465;BME280;60471;52.150;4.508;2023-03-15T05:27:35;101309.13;;;4.73;70.94
72465;BME280;60471;52.150;4.508;2023-03-15T05:30:02;101311.91;;;4.62;70.92
72465;BME280;60471;52.150;4.508;2023-03-15T05:32:29;101314.50;;;4.64;71.27
72465;BME280;60471;52.150;4.508;2023-03-15T05:35:02;101311.13;;;4.57;70.81
72465;BME280;60471;52.150;4.508;2023-03-15T05:37:29;101321.75;;;4.47;71.12
72465;BME280;60471;52.150;4.508;2023-03-15T05:39:57;101318.41;;;4.37;71.44
72465;BME280;60471;52.150;4.508;2023-03-15T05:42:24;101329.06;;;4.23;71.94
72465;BME280;60471;52.150;4.508;2023-03-15T05:44:51;101329.13;;;4.17;72.56
72465;BME280;60471;52.150;4.508;2023-03-15T05:47:17;101337.03;;;4.11;73.16
72465;BME280;60471;52.150;4.508;2023-03-15T05:49:44;101343.44;;;3.87;74.19
72465;BME280;60471;52.150;4.508;2023-03-15T05:52:10;101347.00;;;3.82;74.20
72465;BME280;60471;52.150;4.508;2023-03-15T05:54:36;101348.66;;;3.87;74.64
72465;BME280;60471;52.150;4.508;2023-03-15T05:57:02;101346.94;;;3.86;74.73
72465;BME280;60471;52.150;4.508;2023-03-15T05:59:28;101351.22;;;3.92;74.29
72465;BME280;60471;52.150;4.508;2023-03-15T06:01:54;101356.50;;;3.86;74.56
72465;BME280;60471;52.150;4.508;2023-03-15T06:04:20;101360.13;;;3.74;74.58
72465;BME280;60471;52.150;4.508;2023-03-15T06:06:46;101364.41;;;3.79;75.37
72465;BME280;60471;52.150;4.508;2023-03-15T06:09:12;101376.50;;;3.87;76.19
72465;BME280;60471;52.150;4.508;2023-03-15T06:11:38;101381.56;;;3.99;75.86
72465;BME280;60471;52.150;4.508;2023-03-15T06:14:04;101385.88;;;4.04;75.21
72465;BME280;60471;52.150;4.508;2023-03-15T06:16:30;101397.22;;;4.00;74.91
72465;BME280;60471;52.150;4.508;2023-03-15T06:18:56;101397.28;;;3.96;74.74
72465;BME280;60471;52.150;4.508;2023-03-15T06:21:22;101406.88;;;3.94;74.19
72465;BME280;60471;52.150;4.508;2023-03-15T06:23:48;101412.91;;;4.02;74.15
72465;BME280;60471;52.150;4.508;2023-03-15T06:26:14;101412.75;;;4.11;73.79
72465;BME280;60471;52.150;4.508;2023-03-15T06:28:43;101422.31;;;4.12;74.53
72465;BME280;60471;52.150;4.508;2023-03-15T06:31:10;101425.66;;;4.26;74.18
72465;BME280;60471;52.150;4.508;2023-03-15T06:33:38;101421.03;;;4.47;73.95
72465;BME280;60471;52.150;4.508;2023-03-15T06:36:04;101429.03;;;4.34;73.23
72465;BME280;60471;52.150;4.508;2023-03-15T06:38:31;101437.13;;;4.13;73.15
72465;BME280;60471;52.150;4.508;2023-03-15T06:40:58;101436.16;;;4.20;73.71
72465;BME280;60471;52.150;4.508;2023-03-15T06:43:29;101433.47;;;4.28;73.35
72465;BME280;60471;52.150;4.508;2023-03-15T06:45:56;101435.19;;;4.29;73.32
72465;BME280;60471;52.150;4.508;2023-03-15T06:48:28;101436.97;;;4.27;73.33
72465;BME280;60471;52.150;4.508;2023-03-15T06:50:54;101449.94;;;4.34;73.34
72465;BME280;60471;52.150;4.508;2023-03-15T06:53:20;101453.41;;;4.35;73.33
72465;BME280;60471;52.150;4.508;2023-03-15T06:55:46;101458.50;;;4.44;73.45
72465;BME280;60471;52.150;4.508;2023-03-15T06:58:12;101456.63;;;4.54;73.20
72465;BME280;60471;52.150;4.508;2023-03-15T07:00:39;101458.25;;;4.64;72.97
72465;BME280;60471;52.150;4.508;2023-03-15T07:03:06;101456.03;;;4.97;73.37
72465;BME280;60471;52.150;4.508;2023-03-15T07:05:32;101460.44;;;4.94;72.10
72465;BME280;60471;52.150;4.508;2023-03-15T07:07:58;101461.41;;;4.87;72.21
72465;BME280;60471;52.150;4.508;2023-03-15T07:10:24;101463.16;;;4.88;71.76
72465;BME280;60471;52.150;4.508;2023-03-15T07:12:50;101460.38;;;4.98;71.32
72465;BME280;60471;52.150;4.508;2023-03-15T07:15:16;101466.38;;;5.04;70.60
72465;BME280;60471;52.150;4.508;2023-03-15T07:17:42;101472.41;;;5.09;70.47
72465;BME280;60471;52.150;4.508;2023-03-15T07:20:08;101469.84;;;5.06;69.54
72465;BME280;60471;52.150;4.508;2023-03-15T07:22:35;101475.19;;;4.97;69.15
72465;BME280;60471;52.150;4.508;2023-03-15T07:25:01;101481.44;;;4.87;69.22
72465;BME280;60471;52.150;4.508;2023-03-15T07:27:27;101483.44;;;4.71;70.38
72465;BME280;60471;52.150;4.508;2023-03-15T07:29:54;101482.34;;;4.86;70.30
72465;BME280;60471;52.150;4.508;2023-03-15T07:32:20;101484.06;;;4.87;69.96
72465;BME280;60471;52.150;4.508;2023-03-15T07:34:46;101497.16;;;4.85;69.42
72465;BME280;60471;52.150;4.508;2023-03-15T07:37:12;101497.22;;;4.82;69.06
72465;BME280;60471;52.150;4.508;2023-03-15T07:39:38;101492.06;;;4.76;69.78
72465;BME280;60471;52.150;4.508;2023-03-15T07:42:05;101493.63;;;4.88;69.19
72465;BME280;60471;52.150;4.508;2023-03-15T07:44:32;101497.13;;;4.90;68.69
72465;BME280;60471;52.150;4.508;2023-03-15T07:46:58;101514.53;;;4.91;68.72
72465;BME280;60471;52.150;4.508;2023-03-15T07:49:24;101515.47;;;4.85;67.72
72465;BME280;60471;52.150;4.508;2023-03-15T07:51:50;101519.50;;;5.11;67.51
72465;BME280;60471;52.150;4.508;2023-03-15T07:54:16;101526.53;;;5.04;68.21
72465;BME280;60471;52.150;4.508;2023-03-15T07:56:42;101525.44;;;5.20;67.29
72465;BME280;60471;52.150;4.508;2023-03-15T07:59:08;101529.81;;;5.21;67.35
72465;BME280;60471;52.150;4.508;2023-03-15T08:01:34;101532.41;;;5.21;67.44
72465;BME280;60471;52.150;4.508;2023-03-15T08:04:00;101534.13;;;5.24;67.43
72465;BME280;60471;52.150;4.508;2023-03-15T08:06:26;101545.22;;;5.38;67.66
72465;BME280;60471;52.150;4.508;2023-03-15T08:08:52;101535.53;;;5.45;67.69
72465;BME280;60471;52.150;4.508;2023-03-15T08:11:18;101544.91;;;5.60;66.92
72465;BME280;60471;52.150;4.508;2023-03-15T08:13:44;101553.59;;;5.62;66.84
72465;BME280;60471;52.150;4.508;2023-03-15T08:16:10;101559.75;;;5.59;66.79
72465;BME280;60471;52.150;4.508;2023-03-15T08:18:36;101558.72;;;5.69;67.18
72465;BME280;60471;52.150;4.508;2023-03-15T08:21:02;101562.09;;;5.74;66.86
72465;BME280;60471;52.150;4.508;2023-03-15T08:23:28;101566.25;;;5.89;66.22
72465;BME280;60471;52.150;4.508;2023-03-15T08:25:54;101571.53;;;5.85;65.72
72465;BME280;60471;52.150;4.508;2023-03-15T08:28:21;101571.50;;;5.88;65.54
72465;BME280;60471;52.150;4.508;2023-03-15T08:30:47;101578.78;;;5.69;66.55
72465;BME280;60471;52.150;4.508;2023-03-15T08:33:13;101579.44;;;5.81;66.33
72465;BME280;60471;52.150;4.508;2023-03-15T08:35:39;101576.84;;;5.81;66.50
72465;BME280;60471;52.150;4.508;2023-03-15T08:38:05;101576.81;;;5.83;66.27
72465;BME280;60471;52.150;4.508;2023-03-15T08:40:32;101579.22;;;5.98;67.15
72465;BME280;60471;52.150;4.508;2023-03-15T08:42:58;101580.94;;;5.99;65.64
72465;BME280;60471;52.150;4.508;2023-03-15T08:45:24;101577.09;;;6.20;65.28
72465;BME280;60471;52.150;4.508;2023-03-15T08:47:55;101575.38;;;6.19;65.88
72465;BME280;60471;52.150;4.508;2023-03-15T08:50:25;101574.38;;;6.25;64.42
72465;BME280;60471;52.150;4.508;2023-03-15T08:52:52;101575.75;;;6.44;63.90
72465;BME280;60471;52.150;4.508;2023-03-15T08:55:19;101575.84;;;6.39;65.02
72465;BME280;60471;52.150;4.508;2023-03-15T08:57:45;101583.53;;;6.49;63.32
72465;BME280;60471;52.150;4.508;2023-03-15T09:04:05;101573.31;;;6.80;62.42
72465;BME280;60471;52.150;4.508;2023-03-15T09:06:31;101569.75;;;6.84;61.25
72465;BME280;60471;52.150;4.508;2023-03-15T09:08:57;101561.91;;;6.81;59.51
72465;BME280;60471;52.150;4.508;2023-03-15T09:11:23;101569.84;;;6.78;58.42
72465;BME280;60471;52.150;4.508;2023-03-15T09:13:50;101564.13;;;7.01;59.60
72465;BME280;60471;52.150;4.508;2023-03-15T09:16:16;101561.00;;;6.82;62.07
72465;BME280;60471;52.150;4.508;2023-03-15T09:18:42;101555.03;;;7.15;61.82
72465;BME280;60471;52.150;4.508;2023-03-15T09:21:09;101550.78;;;7.48;60.31
72465;BME280;60471;52.150;4.508;2023-03-15T09:23:36;101551.13;;;7.70;59.19
72465;BME280;60471;52.150;4.508;2023-03-15T09:26:02;101554.25;;;7.50;59.19
72465;BME280;60471;52.150;4.508;2023-03-15T09:28:28;101545.84;;;7.35;59.55
72465;BME280;60471;52.150;4.508;2023-03-15T09:30:54;101561.88;;;7.61;58.34
72465;BME280;60471;52.150;4.508;2023-03-15T09:33:21;101561.53;;;7.75;56.57
72465;BME280;60471;52.150;4.508;2023-03-15T09:35:51;101562.78;;;7.60;57.83
72465;BME280;60471;52.150;4.508;2023-03-15T09:38:18;101572.03;;;7.75;56.55
72465;BME280;60471;52.150;4.508;2023-03-15T09:40:45;101569.09;;;7.87;56.82
72465;BME280;60471;52.150;4.508;2023-03-15T09:43:30;101571.38;;;8.01;54.61
72465;BME280;60471;52.150;4.508;2023-03-15T09:49:24;101568.72;;;8.69;51.29
72465;BME280;60471;52.150;4.508;2023-03-15T09:52:08;101566.94;;;8.69;51.05
72465;BME280;60471;52.150;4.508;2023-03-15T09:54:59;101570.03;;;8.84;51.17
72465;BME280;60471;52.150;4.508;2023-03-15T09:57:38;101576.47;;;9.61;50.73
72465;BME280;60471;52.150;4.508;2023-03-15T10:00:14;101585.03;;;10.93;43.18
72465;BME280;60471;52.150;4.508;2023-03-15T10:02:59;101583.63;;;11.08;42.81
72465;BME280;60471;52.150;4.508;2023-03-15T10:05:37;101578.66;;;12.10;39.47
72465;BME280;60471;52.150;4.508;2023-03-15T10:08:24;101569.00;;;13.07;36.96
72465;BME280;60471;52.150;4.508;2023-03-15T10:11:08;101575.66;;;12.97;36.75
72465;BME280;60471;52.150;4.508;2023-03-15T10:16:44;101577.34;;;12.61;36.47
72465;BME280;60471;52.150;4.508;2023-03-15T10:19:34;101579.75;;;12.86;36.04
72465;BME280;60471;52.150;4.508;2023-03-15T10:27:52;101590.56;;;14.10;34.56
72465;BME280;60471;52.150;4.508;2023-03-15T10:30:51;101595.88;;;14.27;34.18
72465;BME280;60471;52.150;4.508;2023-03-15T10:35:58;101587.69;;;14.14;32.69
72465;BME280;60471;52.150;4.508;2023-03-15T10:38:26;101599.00;;;14.18;32.29
72465;BME280;60471;52.150;4.508;2023-03-15T10:40:55;101604.00;;;13.89;33.67
72465;BME280;60471;52.150;4.508;2023-03-15T10:43:29;101604.91;;;13.88;33.37
72465;BME280;60471;52.150;4.508;2023-03-15T10:46:05;101598.88;;;14.89;31.78
72465;BME280;60471;52.150;4.508;2023-03-15T10:48:35;101616.50;;;14.39;32.84
72465;BME280;60471;52.150;4.508;2023-03-15T10:51:17;101608.84;;;14.16;31.93
72465;BME280;60471;52.150;4.508;2023-03-15T10:53:52;101616.50;;;14.22;32.25
72465;BME280;60471;52.150;4.508;2023-03-15T10:56:27;101615.78;;;14.88;32.26
72465;BME280;60471;52.150;4.508;2023-03-15T10:58:57;101615.59;;;14.58;32.75
72465;BME280;60471;52.150;4.508;2023-03-15T11:01:32;101619.00;;;14.60;32.57
72465;BME280;60471;52.150;4.508;2023-03-15T11:04:25;101618.72;;;14.99;31.72
72465;BME280;60471;52.150;4.508;2023-03-15T11:07:03;101617.91;;;15.77;29.55
72465;BME280;60471;52.150;4.508;2023-03-15T11:09:43;101630.41;;;15.28;28.57
72465;BME280;60471;52.150;4.508;2023-03-15T11:12:22;101619.47;;;14.68;29.29
72465;BME280;60471;52.150;4.508;2023-03-15T11:15:13;101619.56;;;14.99;29.17
72465;BME280;60471;52.150;4.508;2023-03-15T11:17:48;101618.31;;;16.75;24.48
72465;BME280;60471;52.150;4.508;2023-03-15T11:20:34;101614.16;;;16.41;25.14
72465;BME280;60471;52.150;4.508;2023-03-15T11:23:16;101617.06;;;17.38;24.82
72465;BME280;60471;52.150;4.508;2023-03-15T11:25:47;101617.47;;;18.00;23.93
72465;BME280;60471;52.150;4.508;2023-03-15T11:28:19;101615.72;;;17.31;25.03
72465;BME280;60471;52.150;4.508;2023-03-15T11:30:49;101621.47;;;18.72;23.21
72465;BME280;60471;52.150;4.508;2023-03-15T11:36:10;101622.41;;;19.22;22.02
72465;BME280;60471;52.150;4.508;2023-03-15T11:38:41;101613.66;;;21.20;19.61
72465;BME280;60471;52.150;4.508;2023-03-15T11:41:34;101605.97;;;21.26;20.37
72465;BME280;60471;52.150;4.508;2023-03-15T11:44:22;101600.47;;;22.77;19.78
72465;BME280;60471;52.150;4.508;2023-03-15T11:46:58;101614.97;;;20.80;21.00
72465;BME280;60471;52.150;4.508;2023-03-15T11:49:50;101615.25;;;21.33;20.18
72465;BME280;60471;52.150;4.508;2023-03-15T11:52:21;101608.28;;;21.20;21.65
72465;BME280;60471;52.150;4.508;2023-03-15T11:54:51;101612.16;;;22.87;19.34
72465;BME280;60471;52.150;4.508;2023-03-15T11:59:56;101607.28;;;20.76;21.47
72465;BME280;60471;52.150;4.508;2023-03-15T12:03:45;101612.97;;;21.72;19.86
72465;BME280;60471;52.150;4.508;2023-03-15T12:14:03;101615.88;;;19.63;22.39
72465;BME280;60471;52.150;4.508;2023-03-15T12:16:38;101613.91;;;21.28;20.91
72465;BME280;60471;52.150;4.508;2023-03-15T12:19:15;101609.63;;;21.80;19.90
72465;BME280;60471;52.150;4.508;2023-03-15T12:21:49;101625.13;;;21.87;19.15
72465;BME280;60471;52.150;4.508;2023-03-15T12:24:35;101625.34;;;19.30;21.22
72465;BME280;60471;52.150;4.508;2023-03-15T12:27:17;101622.94;;;18.76;22.47
72465;BME280;60471;52.150;4.508;2023-03-15T12:29:47;101608.41;;;21.18;20.07
72465;BME280;60471;52.150;4.508;2023-03-15T12:32:23;101607.75;;;21.91;19.46
72465;BME280;60471;52.150;4.508;2023-03-15T12:34:52;101617.69;;;22.85;18.05
72465;BME280;60471;52.150;4.508;2023-03-15T12:48:13;101606.53;;;22.27;17.62
72465;BME280;60471;52.150;4.508;2023-03-15T12:53:20;101609.22;;;21.52;19.34
72465;BME280;60471;52.150;4.508;2023-03-15T12:58:46;101594.34;;;19.52;22.19
72465;BME280;60471;52.150;4.508;2023-03-15T13:01:17;101596.94;;;22.55;19.50
72465;BME280;60471;52.150;4.508;2023-03-15T13:03:43;101600.72;;;20.34;21.56
72465;BME280;60471;52.150;4.508;2023-03-15T13:06:17;101613.16;;;21.37;21.27
72465;BME280;60471;52.150;4.508;2023-03-15T13:09:02;101594.97;;;21.84;20.57
72465;BME280;60471;52.150;4.508;2023-03-15T13:22:54;101589.81;;;20.59;21.88
72465;BME280;60471;52.150;4.508;2023-03-15T13:25:43;101603.28;;;16.89;25.28
72465;BME280;60471;52.150;4.508;2023-03-15T13:28:26;101606.63;;;17.89;24.21
72465;BME280;60471;52.150;4.508;2023-03-15T13:33:47;101603.44;;;18.23;24.22
72465;BME280;60471;52.150;4.508;2023-03-15T13:36:44;101621.50;;;16.66;26.63
72465;BME280;60471;52.150;4.508;2023-03-15T13:39:20;101612.13;;;18.00;25.55
72465;BME280;60471;52.150;4.508;2023-03-15T13:42:04;101606.63;;;20.15;22.78
72465;BME280;60471;52.150;4.508;2023-03-15T13:44:41;101616.41;;;19.92;23.15
72465;BME280;60471;52.150;4.508;2023-03-15T13:47:08;101617.16;;;18.57;25.07
72465;BME280;60471;52.150;4.508;2023-03-15T13:49:43;101616.44;;;18.80;24.35
72465;BME280;60471;52.150;4.508;2023-03-15T13:52:09;101612.53;;;17.94;25.51
72465;BME280;60471;52.150;4.508;2023-03-15T13:54:40;101614.53;;;18.17;25.83
72465;BME280;60471;52.150;4.508;2023-03-15T13:57:14;101609.69;;;18.10;25.62
72465;BME280;60471;52.150;4.508;2023-03-15T13:59:52;101611.50;;;17.70;25.76
72465;BME280;60471;52.150;4.508;2023-03-15T14:02:47;101614.75;;;17.87;25.29
72465;BME280;60471;52.150;4.508;2023-03-15T14:05:47;101612.69;;;17.37;24.44
72465;BME280;60471;52.150;4.508;2023-03-15T14:08:32;101606.59;;;17.76;24.65
72465;BME280;60471;52.150;4.508;2023-03-15T14:11:04;101610.88;;;18.18;24.41
72465;BME280;60471;52.150;4.508;2023-03-15T14:13:56;101612.44;;;17.95;23.19
72465;BME280;60471;52.150;4.508;2023-03-15T14:16:40;101618.59;;;17.83;23.20
72465;BME280;60471;52.150;4.508;2023-03-15T14:21:42;101619.38;;;17.57;23.14
72465;BME280;60471;52.150;4.508;2023-03-15T14:24:16;101616.53;;;17.60;22.63
72465;BME280;60471;52.150;4.508;2023-03-15T14:26:57;101616.50;;;16.90;24.64
72465;BME280;60471;52.150;4.508;2023-03-15T14:29:28;101615.25;;;16.23;25.29
72465;BME280;60471;52.150;4.508;2023-03-15T14:32:00;101593.63;;;16.58;25.34